createdAt,value
2022-09-06T00:01:24.619Z,0.22
2022-09-06T00:03:51.356Z,0.35
2022-09-06T00:06:19.650Z,0.50
2022-09-06T00:08:47.142Z,0.70
2022-09-06T00:11:14.051Z,0.47
2022-09-06T00:13:40.818Z,0.57
2022-09-06T00:16:08.687Z,0.30
2022-09-06T00:18:35.524Z,0.30
2022-09-06T00:21:03.588Z,0.30
2022-09-06T00:23:30.439Z,0.40
2022-09-06T00:26:04.630Z,0.50
2022-09-06T00:28:31.626Z,0.40
2022-09-06T00:30:58.458Z,0.50
2022-09-06T00:33:27.001Z,0.45
2022-09-06T00:35:58.968Z,0.70
2022-09-06T00:38:25.856Z,1.00
2022-09-06T00:40:52.663Z,0.40
2022-09-06T00:43:19.587Z,0.32
2022-09-06T00:45:46.459Z,0.40
2022-09-06T00:48:13.349Z,0.73
2022-09-06T00:50:40.028Z,0.40
2022-09-06T00:53:06.740Z,0.60
2022-09-06T00:55:34.040Z,0.43
2022-09-06T00:58:00.952Z,0.95
2022-09-06T01:00:28.399Z,0.50
2022-09-06T01:02:55.327Z,0.47
2022-09-06T01:05:23.900Z,0.40
2022-09-06T01:08:06.284Z,0.40
2022-09-06T01:10:38.956Z,0.50
2022-09-06T01:13:23.934Z,0.65
2022-09-06T01:16:23.242Z,1.00
2022-09-06T01:19:05.286Z,0.57
2022-09-06T01:21:44.001Z,0.40
2022-09-06T01:24:25.418Z,0.40
2022-09-06T01:27:09.973Z,0.63
2022-09-06T01:30:08.954Z,0.43
2022-09-06T01:32:37.402Z,0.50
2022-09-06T01:35:29.330Z,0.88
2022-09-06T01:37:56.385Z,0.38
2022-09-06T01:40:23.182Z,0.40
2022-09-06T01:42:50.086Z,0.93
2022-09-06T01:45:22.050Z,0.60
2022-09-06T01:47:54.996Z,0.68
2022-09-06T01:50:48.011Z,0.47
2022-09-06T01:53:26.870Z,0.65
2022-09-06T01:56:08.813Z,0.50
2022-09-06T01:59:07.645Z,0.40
2022-09-06T02:01:54.963Z,0.40
2022-09-06T02:04:25.855Z,0.57
2022-09-06T02:07:00.268Z,0.47
2022-09-06T02:09:27.732Z,0.40
2022-09-06T02:11:56.888Z,0.57
2022-09-06T02:14:38.401Z,0.63
2022-09-06T02:17:05.785Z,0.50
2022-09-06T02:19:36.535Z,0.45
2022-09-06T02:22:05.343Z,0.40
2022-09-06T02:24:32.184Z,0.75
2022-09-06T02:26:58.920Z,0.40
2022-09-06T02:29:25.818Z,0.55
2022-09-06T02:32:09.654Z,0.40
2022-09-06T02:34:37.869Z,0.63
2022-09-06T02:37:05.063Z,0.32
2022-09-06T02:39:32.284Z,0.60
2022-09-06T02:41:59.123Z,0.57
2022-09-06T02:44:25.797Z,0.55
2022-09-06T02:46:56.457Z,0.45
2022-09-06T02:49:24.622Z,0.65
2022-09-06T02:51:51.395Z,0.65
2022-09-06T02:54:18.684Z,0.80
2022-09-06T02:56:48.980Z,0.60
2022-09-06T02:59:18.385Z,0.40
2022-09-06T03:01:45.332Z,0.50
2022-09-06T03:04:12.323Z,0.73
2022-09-06T03:06:39.019Z,0.40
2022-09-06T03:09:05.740Z,0.63
2022-09-06T03:11:32.770Z,0.60
2022-09-06T03:13:59.506Z,0.60
2022-09-06T03:16:26.431Z,0.50
2022-09-06T03:18:53.226Z,0.50
2022-09-06T03:21:19.910Z,1.05
2022-09-06T03:23:47.450Z,0.40
2022-09-06T03:26:14.261Z,0.80
2022-09-06T03:28:41.159Z,0.52
2022-09-06T03:31:08.024Z,0.68
2022-09-06T03:33:34.807Z,0.73
2022-09-06T03:36:03.026Z,0.55
2022-09-06T03:38:30.063Z,1.15
2022-09-06T03:40:56.840Z,0.50
2022-09-06T03:43:24.269Z,1.02
2022-09-06T03:45:52.352Z,0.80
2022-09-06T03:48:19.761Z,0.40
2022-09-06T03:50:47.656Z,0.60
2022-09-06T03:53:14.816Z,0.63
2022-09-06T03:55:44.971Z,0.40
2022-09-06T03:58:11.991Z,0.47
2022-09-06T04:00:38.846Z,1.10
2022-09-06T04:03:05.609Z,0.50
2022-09-06T04:05:32.360Z,0.43
2022-09-06T04:07:59.100Z,0.75
2022-09-06T04:10:26.315Z,0.60
2022-09-06T04:12:53.210Z,0.70
2022-09-06T04:15:19.938Z,0.60
2022-09-06T04:17:46.997Z,0.75
2022-09-06T04:20:14.402Z,0.90
2022-09-06T04:22:41.208Z,0.50
2022-09-06T04:25:08.539Z,0.60
2022-09-06T04:27:35.307Z,0.70
2022-09-06T04:30:02.234Z,0.68
2022-09-06T04:32:28.963Z,0.60
2022-09-06T04:34:55.699Z,0.85
2022-09-06T04:37:22.395Z,0.73
2022-09-06T04:39:49.282Z,0.40
2022-09-06T04:42:16.206Z,0.85
2022-09-06T04:44:42.976Z,0.60
2022-09-06T04:47:18.167Z,0.70
2022-09-06T04:49:45.172Z,1.00
2022-09-06T04:52:11.942Z,0.95
2022-09-06T04:54:38.717Z,0.90
2022-09-06T04:57:05.695Z,1.05
2022-09-06T04:59:32.934Z,1.13
2022-09-06T05:02:00.146Z,0.90
2022-09-06T05:04:27.016Z,0.63
2022-09-06T05:07:07.211Z,0.95
2022-09-06T05:09:34.833Z,1.10
2022-09-06T05:12:02.115Z,1.35
2022-09-06T05:14:29.259Z,1.27
2022-09-06T05:16:56.209Z,1.10
2022-09-06T05:19:23.459Z,0.88
2022-09-06T05:21:51.702Z,1.13
2022-09-06T05:24:18.509Z,1.20
2022-09-06T05:26:45.378Z,0.63
2022-09-06T05:29:12.274Z,1.05
2022-09-06T05:31:39.173Z,1.63
2022-09-06T05:34:07.255Z,1.08
2022-09-06T05:36:34.399Z,1.13
2022-09-06T05:39:01.206Z,1.42
2022-09-06T05:41:28.101Z,0.70
2022-09-06T05:43:55.000Z,1.45
2022-09-06T05:46:21.811Z,1.33
2022-09-06T05:49:01.373Z,0.85
2022-09-06T05:51:28.202Z,1.60
2022-09-06T05:53:55.378Z,1.33
2022-09-06T05:56:22.595Z,1.55
2022-09-06T05:58:49.654Z,1.27
2022-09-06T06:01:20.176Z,0.77
2022-09-06T06:04:03.404Z,1.23
2022-09-06T06:06:31.677Z,1.00
2022-09-06T06:08:59.021Z,1.40
2022-09-06T06:11:26.831Z,1.25
2022-09-06T06:13:53.928Z,1.10
2022-09-06T06:16:22.210Z,1.25
2022-09-06T06:18:52.266Z,1.08
2022-09-06T06:21:21.538Z,1.58
2022-09-06T06:23:50.592Z,1.17
2022-09-06T06:26:18.492Z,0.50
2022-09-06T06:28:45.422Z,1.20
2022-09-06T06:31:12.354Z,1.35
2022-09-06T06:33:39.648Z,1.30
2022-09-06T06:36:16.667Z,1.00
2022-09-06T06:38:44.304Z,1.00
2022-09-06T06:41:12.882Z,1.23
2022-09-06T06:43:39.850Z,0.80
2022-09-06T06:46:08.517Z,1.17
2022-09-06T06:48:37.918Z,0.50
2022-09-06T06:51:05.644Z,1.35
2022-09-06T06:53:33.127Z,1.00
2022-09-06T06:56:00.467Z,1.38
2022-09-06T06:58:27.710Z,0.95
2022-09-06T07:00:54.695Z,1.05
2022-09-06T07:03:21.797Z,1.80
2022-09-06T07:08:37.274Z,1.20
2022-09-06T07:11:05.497Z,1.35
2022-09-06T07:13:34.127Z,0.80
2022-09-06T07:16:11.707Z,1.20
2022-09-06T07:18:42.152Z,1.38
2022-09-06T07:24:06.759Z,0.80
2022-09-06T07:26:35.420Z,0.50
2022-09-06T07:29:03.104Z,0.63
2022-09-06T07:34:18.157Z,1.33
2022-09-06T07:36:44.984Z,1.20
2022-09-06T07:39:11.726Z,1.23
2022-09-06T07:41:38.552Z,3.15
2022-09-06T07:44:05.468Z,0.98
2022-09-06T07:46:33.049Z,1.80
2022-09-06T07:49:00.098Z,1.00
2022-09-06T07:51:26.903Z,2.13
2022-09-06T07:54:07.464Z,2.58
2022-09-06T07:56:42.777Z,1.35
2022-09-06T07:59:09.515Z,1.83
2022-09-06T08:01:37.543Z,1.52
2022-09-06T08:04:06.960Z,1.10
2022-09-06T08:09:22.300Z,0.60
2022-09-06T08:11:51.168Z,1.27
2022-09-06T08:14:18.036Z,2.95
2022-09-06T08:16:44.920Z,0.93
2022-09-06T08:19:12.659Z,1.95
2022-09-06T08:21:39.562Z,0.93
2022-09-06T08:24:07.458Z,0.93
2022-09-06T08:26:35.168Z,1.98
2022-09-06T08:29:03.724Z,3.55
2022-09-06T08:31:31.360Z,1.25
2022-09-06T08:33:58.842Z,0.40
2022-09-06T08:36:31.801Z,1.38
2022-09-06T08:41:44.783Z,1.70
2022-09-06T08:47:04.649Z,0.77
2022-09-06T08:49:36.494Z,2.25
2022-09-06T08:52:54.411Z,1.45
2022-09-06T08:55:41.244Z,1.40
2022-09-06T08:58:30.116Z,2.03
2022-09-06T09:01:03.468Z,1.20
2022-09-06T09:03:37.880Z,0.90
2022-09-06T09:06:06.852Z,1.02
2022-09-06T09:08:46.389Z,0.95
2022-09-06T09:11:17.573Z,1.25
2022-09-06T09:13:47.332Z,1.65
2022-09-06T09:16:14.740Z,1.27
2022-09-06T09:18:43.868Z,0.52
2022-09-06T09:21:11.026Z,0.73
2022-09-06T09:23:38.072Z,1.05
2022-09-06T09:26:11.439Z,2.33
2022-09-06T09:28:38.226Z,3.58
2022-09-06T09:31:07.176Z,1.50
2022-09-06T09:33:35.827Z,0.93
2022-09-06T09:36:12.825Z,1.65
2022-09-06T09:38:49.171Z,0.88
2022-09-06T09:41:31.953Z,1.60
2022-09-06T09:44:18.924Z,1.20
2022-09-06T09:46:45.795Z,2.17
2022-09-06T09:49:32.794Z,0.63
2022-09-06T09:52:13.234Z,1.80
2022-09-06T09:54:42.124Z,0.82
2022-09-06T09:57:12.057Z,0.75
2022-09-06T09:59:49.890Z,0.80
2022-09-06T10:02:25.704Z,1.83
2022-09-06T10:04:54.018Z,2.30
2022-09-06T10:07:22.203Z,1.10
2022-09-06T10:09:50.371Z,3.30
2022-09-06T10:12:38.884Z,2.20
2022-09-06T10:15:07.455Z,3.08
2022-09-06T10:17:47.475Z,2.08
2022-09-06T10:20:14.810Z,1.90
2022-09-06T10:22:43.967Z,2.58
2022-09-06T10:25:25.887Z,1.35
2022-09-06T10:28:12.827Z,2.60
2022-09-06T10:31:08.581Z,2.75
2022-09-06T10:33:54.094Z,1.75
2022-09-06T10:36:27.915Z,2.40
2022-09-06T10:39:03.864Z,1.45
2022-09-06T10:41:46.158Z,2.20
2022-09-06T10:44:30.968Z,2.92
2022-09-06T10:47:14.726Z,1.85
2022-09-06T10:49:44.697Z,1.83
2022-09-06T10:52:24.463Z,3.28
2022-09-06T10:54:51.205Z,4.13
2022-09-06T11:00:17.104Z,4.40
2022-09-06T11:06:07.162Z,2.80
2022-09-06T11:08:57.811Z,2.75
2022-09-06T11:11:36.091Z,1.63
2022-09-06T11:14:09.605Z,1.52
2022-09-06T11:16:42.097Z,1.23
2022-09-06T11:19:29.935Z,1.45
2022-09-06T11:22:12.847Z,2.00
2022-09-06T11:25:04.498Z,1.92
2022-09-06T11:27:31.284Z,1.27
2022-09-06T11:29:58.829Z,1.85
2022-09-06T11:32:37.740Z,1.80
2022-09-06T11:35:10.144Z,1.58
2022-09-06T11:37:43.910Z,0.88
2022-09-06T11:42:59.357Z,1.40
2022-09-06T11:45:48.550Z,1.58
2022-09-06T11:48:24.606Z,1.33
2022-09-06T11:50:54.509Z,3.65
2022-09-06T11:53:44.596Z,2.30
2022-09-06T11:56:17.219Z,1.52
2022-09-06T11:58:53.489Z,2.20
2022-09-06T12:01:20.868Z,2.70
2022-09-06T12:04:09.082Z,1.25
2022-09-06T12:06:43.950Z,1.85
2022-09-06T12:09:27.562Z,1.13
2022-09-06T12:11:56.615Z,1.45
2022-09-06T12:14:46.642Z,1.77
2022-09-06T12:17:13.410Z,1.33
2022-09-06T12:19:45.003Z,1.10
2022-09-06T12:22:30.076Z,2.28
2022-09-06T12:25:10.222Z,2.97
2022-09-06T12:27:39.194Z,2.03
2022-09-06T12:30:08.994Z,1.67
2022-09-06T12:32:52.205Z,3.58
2022-09-06T12:38:16.054Z,2.78
2022-09-06T12:40:48.159Z,2.13
2022-09-06T12:43:15.697Z,1.30
2022-09-06T12:45:43.613Z,1.77
2022-09-06T12:48:11.999Z,1.00
2022-09-06T12:50:38.766Z,0.40
2022-09-06T12:53:22.769Z,1.85
2022-09-06T12:55:52.360Z,1.38
2022-09-06T12:58:25.275Z,0.70
2022-09-06T13:00:53.039Z,1.38
2022-09-06T13:03:29.553Z,0.88
2022-09-06T13:05:56.923Z,1.02
2022-09-06T13:08:45.923Z,0.90
2022-09-06T13:11:14.702Z,0.88
2022-09-06T13:13:48.795Z,2.28
2022-09-06T13:16:25.534Z,1.45
2022-09-06T13:18:52.568Z,1.65
2022-09-06T13:21:46.346Z,1.58
2022-09-06T13:24:45.961Z,1.67
2022-09-06T13:27:34.193Z,1.70
2022-09-06T13:30:02.875Z,1.75
2022-09-06T13:32:29.591Z,0.88
2022-09-06T13:34:57.751Z,0.90
2022-09-06T13:37:31.997Z,1.42
2022-09-06T13:39:59.980Z,1.92
2022-09-06T13:42:34.125Z,1.80
2022-09-06T13:45:36.785Z,0.50
2022-09-06T13:48:26.167Z,1.85
2022-09-06T13:50:50.432Z,1.63
2022-09-06T13:53:20.667Z,0.93
2022-09-06T13:55:47.363Z,0.80
2022-09-06T13:58:14.134Z,1.25
2022-09-06T14:00:41.286Z,2.03
2022-09-06T14:03:09.336Z,1.83
2022-09-06T14:05:39.012Z,1.10
2022-09-06T14:08:05.806Z,2.35
2022-09-06T14:10:32.859Z,1.10
2022-09-06T14:12:59.615Z,1.50
2022-09-06T14:15:26.424Z,1.20
2022-09-06T14:17:53.302Z,1.63
2022-09-06T14:20:20.020Z,0.88
2022-09-06T14:22:47.735Z,1.13
2022-09-06T14:25:14.641Z,1.30
2022-09-06T14:27:41.392Z,2.10
2022-09-06T14:30:09.320Z,2.05
2022-09-06T14:32:36.059Z,1.63
2022-09-06T14:35:05.650Z,1.02
2022-09-06T14:37:33.325Z,1.95
2022-09-06T14:40:00.403Z,1.45
2022-09-06T14:42:28.497Z,1.08
2022-09-06T14:44:55.410Z,1.20
2022-09-06T14:47:22.409Z,1.65
2022-09-06T14:49:51.899Z,2.03
2022-09-06T14:52:18.723Z,1.30
2022-09-06T14:54:45.635Z,1.67
2022-09-06T14:57:12.448Z,0.77
2022-09-06T14:59:39.551Z,2.75
2022-09-06T15:02:09.412Z,0.85
2022-09-06T15:04:36.309Z,1.35
2022-09-06T15:07:03.411Z,1.48
2022-09-06T15:09:30.222Z,0.63
2022-09-06T15:11:57.193Z,0.52
2022-09-06T15:14:25.718Z,3.13
2022-09-06T15:16:56.137Z,2.20
2022-09-06T15:19:24.521Z,1.75
2022-09-06T15:21:51.317Z,1.42
2022-09-06T15:24:18.490Z,1.25
2022-09-06T15:26:45.355Z,1.17
2022-09-06T15:29:12.811Z,1.92
2022-09-06T15:31:40.101Z,1.92
2022-09-06T15:34:09.074Z,1.55
2022-09-06T15:36:36.911Z,1.65
2022-09-06T15:39:04.351Z,0.93
2022-09-06T15:41:32.624Z,1.95
2022-09-06T15:44:01.541Z,2.10
2022-09-06T15:46:44.427Z,1.75
2022-09-06T15:49:16.774Z,1.73
2022-09-06T15:51:43.835Z,0.88
2022-09-06T15:54:11.153Z,1.20
2022-09-06T15:56:38.181Z,1.40
2022-09-06T15:59:05.327Z,1.98
2022-09-06T16:01:34.077Z,3.63
2022-09-06T16:04:04.005Z,2.80
2022-09-06T16:06:32.977Z,1.80
2022-09-06T16:09:01.808Z,1.92
2022-09-06T16:11:29.580Z,1.92
2022-09-06T16:13:56.523Z,1.30
2022-09-06T16:16:23.471Z,3.20
2022-09-06T16:18:52.371Z,2.20
2022-09-06T16:21:21.547Z,2.35
2022-09-06T16:23:49.854Z,1.88
2022-09-06T16:26:21.312Z,1.52
2022-09-06T16:28:49.175Z,3.20
2022-09-06T16:31:16.234Z,2.55
2022-09-06T16:33:45.381Z,2.30
2022-09-06T16:36:12.856Z,1.88
2022-09-06T16:38:39.916Z,1.63
2022-09-06T16:41:17.308Z,2.45
2022-09-06T16:43:44.883Z,1.95
2022-09-06T16:46:12.130Z,3.13
2022-09-06T16:48:42.341Z,0.98
2022-09-06T16:51:18.829Z,1.33
2022-09-06T16:53:46.665Z,0.85
2022-09-06T16:56:15.664Z,2.65
2022-09-06T16:58:43.719Z,2.97
2022-09-06T17:01:11.640Z,2.47
2022-09-06T17:03:38.767Z,1.20
2022-09-06T17:06:06.619Z,1.02
2022-09-06T17:08:34.987Z,1.00
2022-09-06T17:11:04.529Z,1.83
2022-09-06T17:13:32.365Z,1.58
2022-09-06T17:16:21.902Z,1.88
2022-09-06T17:18:50.042Z,0.77
2022-09-06T17:21:17.568Z,0.82
2022-09-06T17:23:44.551Z,1.98
2022-09-06T17:26:11.483Z,1.45
2022-09-06T17:28:38.510Z,0.80
2022-09-06T17:31:05.956Z,0.82
2022-09-06T17:33:33.353Z,1.25
2022-09-06T17:36:14.270Z,1.58
2022-09-06T17:38:42.709Z,1.50
2022-09-06T17:41:21.685Z,1.90
2022-09-06T17:43:48.739Z,1.27
2022-09-06T17:46:15.767Z,1.13
2022-09-06T17:48:43.598Z,1.35
2022-09-06T17:51:11.052Z,0.82
2022-09-06T17:53:38.150Z,0.88
2022-09-06T17:56:06.156Z,1.05
2022-09-06T17:58:33.178Z,1.35
2022-09-06T18:01:06.004Z,1.10
2022-09-06T18:03:35.087Z,1.48
2022-09-06T18:06:13.083Z,1.05
2022-09-06T18:08:41.713Z,0.30
2022-09-06T18:11:09.281Z,1.30
2022-09-06T18:13:36.554Z,2.67
2022-09-06T18:16:04.348Z,0.38
2022-09-06T18:18:31.923Z,1.48
2022-09-06T18:20:58.859Z,0.30
2022-09-06T18:23:25.743Z,0.73
2022-09-06T18:26:06.482Z,0.50
2022-09-06T18:28:34.461Z,0.90
2022-09-06T18:31:08.763Z,0.70
2022-09-06T18:33:35.817Z,0.60
2022-09-06T18:36:03.674Z,0.98
2022-09-06T18:38:30.769Z,1.02
2022-09-06T18:40:59.073Z,2.22
2022-09-06T18:43:31.658Z,1.65
2022-09-06T18:46:12.792Z,0.98
2022-09-06T18:48:40.101Z,1.00
2022-09-06T18:51:15.026Z,1.02
2022-09-06T18:53:45.677Z,1.15
2022-09-06T18:56:13.535Z,0.45
2022-09-06T18:58:40.754Z,1.05
2022-09-06T19:01:13.024Z,1.23
2022-09-06T19:03:40.523Z,1.08
2022-09-06T19:06:18.078Z,1.15
2022-09-06T19:08:48.127Z,0.90
2022-09-06T19:11:19.621Z,0.82
2022-09-06T19:13:47.289Z,0.73
2022-09-06T19:16:14.257Z,0.88
2022-09-06T19:18:41.463Z,1.55
2022-09-06T19:21:10.014Z,0.88
2022-09-06T19:23:41.889Z,0.70
2022-09-06T19:26:10.420Z,0.40
2022-09-06T19:28:37.711Z,0.52
2022-09-06T19:31:28.836Z,0.55
2022-09-06T19:33:56.179Z,0.73
2022-09-06T19:36:23.826Z,0.52
2022-09-06T19:39:04.183Z,1.17
2022-09-06T19:41:33.084Z,0.25
2022-09-06T19:44:01.770Z,1.20
2022-09-06T19:46:28.768Z,0.77
2022-09-06T19:48:58.907Z,1.15
2022-09-06T19:51:25.873Z,0.40
2022-09-06T19:53:54.038Z,0.73
2022-09-06T19:56:26.139Z,0.10
2022-09-06T19:58:55.247Z,0.20
2022-09-06T20:01:22.696Z,0.75
2022-09-06T20:03:49.599Z,0.45
2022-09-06T20:06:16.579Z,0.55
2022-09-06T20:08:43.408Z,0.50
2022-09-06T20:11:12.736Z,0.20
2022-09-06T20:13:39.986Z,0.57
2022-09-06T20:16:08.085Z,0.85
2022-09-06T20:18:37.873Z,1.58
2022-09-06T20:21:05.841Z,0.20
2022-09-06T20:23:34.082Z,0.20
2022-09-06T20:26:05.328Z,0.57
2022-09-06T20:28:32.454Z,0.40
2022-09-06T20:31:02.738Z,0.20
2022-09-06T20:33:29.780Z,0.50
2022-09-06T20:35:57.623Z,0.95
2022-09-06T20:38:24.733Z,0.30
2022-09-06T20:41:23.578Z,0.55
2022-09-06T20:43:52.147Z,0.60
2022-09-06T20:46:20.512Z,0.20
2022-09-06T20:48:47.568Z,0.80
2022-09-06T20:51:17.090Z,0.85
2022-09-06T20:53:43.843Z,2.58
2022-09-06T20:56:12.416Z,1.10
2022-09-06T20:58:39.602Z,0.50
2022-09-06T21:01:11.521Z,0.50
2022-09-06T21:03:39.462Z,0.85
2022-09-06T21:06:07.504Z,0.70
2022-09-06T21:08:36.645Z,0.60
2022-09-06T21:11:06.872Z,1.52
2022-09-06T21:13:34.439Z,0.77
2022-09-06T21:16:01.911Z,0.68
2022-09-06T21:18:29.531Z,1.27
2022-09-06T21:21:04.248Z,0.77
2022-09-06T21:23:32.983Z,1.20
2022-09-06T21:26:02.165Z,1.67
2022-09-06T21:28:30.071Z,1.60
2022-09-06T21:31:09.745Z,1.05
2022-09-06T21:33:36.981Z,0.73
2022-09-06T21:36:08.288Z,0.52
2022-09-06T21:38:36.035Z,0.30
2022-09-06T21:41:03.662Z,1.75
2022-09-06T21:43:31.365Z,2.05
2022-09-06T21:46:02.202Z,1.23
2022-09-06T21:48:29.132Z,1.08
2022-09-06T21:50:56.211Z,1.00
2022-09-06T21:53:23.761Z,0.38
2022-09-06T21:55:50.552Z,0.65
2022-09-06T21:58:18.037Z,0.82
2022-09-06T22:00:50.756Z,0.57
2022-09-06T22:03:17.678Z,0.65
2022-09-06T22:05:44.520Z,0.70
2022-09-06T22:08:11.515Z,1.05
2022-09-06T22:10:38.415Z,0.75
2022-09-06T22:13:05.661Z,0.90
2022-09-06T22:15:32.742Z,0.40
2022-09-06T22:18:01.302Z,0.20
2022-09-06T22:20:28.054Z,0.20
2022-09-06T22:22:54.960Z,0.25
2022-09-06T22:25:23.605Z,0.52
2022-09-06T22:27:50.414Z,0.40
2022-09-06T22:30:21.595Z,0.20
2022-09-06T22:32:50.768Z,0.30
2022-09-06T22:35:18.551Z,0.20
2022-09-06T22:37:45.828Z,1.02
2022-09-06T22:40:13.297Z,0.20
2022-09-06T22:42:40.807Z,1.00
2022-09-06T22:45:08.175Z,0.22
2022-09-06T22:47:35.067Z,0.50
2022-09-06T22:50:02.290Z,0.63
2022-09-06T22:52:32.675Z,0.32
2022-09-06T22:54:59.545Z,0.43
2022-09-06T22:57:27.093Z,0.40
2022-09-06T22:59:54.058Z,0.10
2022-09-06T23:02:21.185Z,0.20
2022-09-06T23:04:48.041Z,0.50
2022-09-06T23:07:15.478Z,0.50
2022-09-06T23:09:42.426Z,0.25
2022-09-06T23:12:09.251Z,0.40
2022-09-06T23:14:36.049Z,0.32
2022-09-06T23:17:03.415Z,0.45
2022-09-06T23:19:30.919Z,0.73
2022-09-06T23:21:57.737Z,0.75
2022-09-06T23:24:24.654Z,0.20
2022-09-06T23:26:52.754Z,0.28
2022-09-06T23:29:19.720Z,0.73
2022-09-06T23:31:47.745Z,0.20
2022-09-06T23:34:14.614Z,0.50
2022-09-06T23:36:41.522Z,0.35
2022-09-06T23:39:08.877Z,0.65
2022-09-06T23:41:35.793Z,0.20
2022-09-06T23:44:03.282Z,0.10
2022-09-06T23:46:30.215Z,0.20
2022-09-06T23:48:57.976Z,0.20
2022-09-06T23:51:25.304Z,0.30
2022-09-06T23:53:52.916Z,0.10
2022-09-06T23:56:20.951Z,0.30
2022-09-06T23:58:47.873Z,0.25
